sensor_id;sensor_type;location;lat;lon;timestamp;P1;durP1;ratioP1;P2;durP2;ratioP2
52268;SDS011;38224;50.950;4.100;2023-01-16T00:00:40;11.40;;;2.38;;
52268;SDS011;38224;50.950;4.100;2023-01-16T00:03:05;12.38;;;2.08;;
52268;SDS011;38224;50.950;4.100;2023-01-16T00:05:31;9.73;;;2.37;;
52268;SDS011;38224;50.950;4.100;2023-01-16T00:07:56;14.87;;;2.67;;
52268;SDS011;38224;50.950;4.100;2023-01-16T00:10:22;9.75;;;2.22;;
52268;SDS011;38224;50.950;4.100;2023-01-16T00:12:47;8.13;;;2.05;;
52268;SDS011;38224;50.950;4.100;2023-01-16T00:15:13;9.27;;;2.28;;
52268;SDS011;38224;50.950;4.100;2023-01-16T00:17:38;10.02;;;1.75;;
52268;SDS011;38224;50.950;4.100;2023-01-16T00:20:04;4.63;;;1.73;;
52268;SDS011;38224;50.950;4.100;2023-01-16T00:22:29;8.30;;;1.90;;
52268;SDS011;38224;50.950;4.100;2023-01-16T00:24:54;7.60;;;2.30;;
52268;SDS011;38224;50.950;4.100;2023-01-16T00:27:19;11.80;;;2.13;;
52268;SDS011;38224;50.950;4.100;2023-01-16T00:29:45;7.25;;;1.98;;
52268;SDS011;38224;50.950;4.100;2023-01-16T00:32:10;9.57;;;2.13;;
52268;SDS011;38224;50.950;4.100;2023-01-16T00:34:35;14.60;;;2.80;;
52268;SDS011;38224;50.950;4.100;2023-01-16T00:37:01;10.43;;;1.90;;
52268;SDS011;38224;50.950;4.100;2023-01-16T00:39:26;4.55;;;1.35;;
52268;SDS011;38224;50.950;4.100;2023-01-16T00:41:51;6.43;;;1.63;;
52268;SDS011;38224;50.950;4.100;2023-01-16T00:44:17;7.40;;;1.83;;
52268;SDS011;38224;50.950;4.100;2023-01-16T00:46:44;8.35;;;2.65;;
52268;SDS011;38224;50.950;4.100;2023-01-16T00:49:09;3.85;;;1.25;;
52268;SDS011;38224;50.950;4.100;2023-01-16T00:51:34;8.75;;;1.65;;
52268;SDS011;38224;50.950;4.100;2023-01-16T00:54:00;5.95;;;1.30;;
52268;SDS011;38224;50.950;4.100;2023-01-16T00:56:25;5.67;;;1.57;;
52268;SDS011;38224;50.950;4.100;2023-01-16T00:58:50;6.97;;;1.70;;
52268;SDS011;38224;50.950;4.100;2023-01-16T01:01:15;6.40;;;1.70;;
52268;SDS011;38224;50.950;4.100;2023-01-16T01:03:41;5.82;;;1.95;;
52268;SDS011;38224;50.950;4.100;2023-01-16T01:06:07;4.05;;;1.58;;
52268;SDS011;38224;50.950;4.100;2023-01-16T01:08:32;10.95;;;1.58;;
52268;SDS011;38224;50.950;4.100;2023-01-16T01:11:01;8.57;;;2.17;;
52268;SDS011;38224;50.950;4.100;2023-01-16T01:13:29;5.50;;;1.83;;
52268;SDS011;38224;50.950;4.100;2023-01-16T01:15:55;6.10;;;1.80;;
52268;SDS011;38224;50.950;4.100;2023-01-16T01:18:20;9.90;;;2.00;;
52268;SDS011;38224;50.950;4.100;2023-01-16T01:20:46;4.27;;;2.00;;
52268;SDS011;38224;50.950;4.100;2023-01-16T01:23:11;4.30;;;1.58;;
52268;SDS011;38224;50.950;4.100;2023-01-16T01:25:39;7.68;;;1.80;;
52268;SDS011;38224;50.950;4.100;2023-01-16T01:28:04;11.70;;;2.53;;
52268;SDS011;38224;50.950;4.100;2023-01-16T01:30:29;8.37;;;1.93;;
52268;SDS011;38224;50.950;4.100;2023-01-16T01:32:55;10.47;;;2.30;;
52268;SDS011;38224;50.950;4.100;2023-01-16T01:35:20;6.97;;;2.53;;
52268;SDS011;38224;50.950;4.100;2023-01-16T01:37:45;6.45;;;1.77;;
52268;SDS011;38224;50.950;4.100;2023-01-16T01:40:11;11.32;;;4.43;;
52268;SDS011;38224;50.950;4.100;2023-01-16T01:42:37;12.13;;;2.97;;
52268;SDS011;38224;50.950;4.100;2023-01-16T01:47:41;10.50;;;2.80;;
52268;SDS011;38224;50.950;4.100;2023-01-16T01:52:54;11.48;;;3.22;;
52268;SDS011;38224;50.950;4.100;2023-01-16T01:55:20;14.40;;;3.20;;
52268;SDS011;38224;50.950;4.100;2023-01-16T01:57:47;10.82;;;2.60;;
52268;SDS011;38224;50.950;4.100;2023-01-16T02:00:17;13.68;;;3.05;;
52268;SDS011;38224;50.950;4.100;2023-01-16T02:03:04;7.57;;;2.92;;
52268;SDS011;38224;50.950;4.100;2023-01-16T02:05:32;16.90;;;3.33;;
52268;SDS011;38224;50.950;4.100;2023-01-16T02:07:59;13.00;;;2.60;;
52268;SDS011;38224;50.950;4.100;2023-01-16T02:10:45;12.93;;;2.83;;
52268;SDS011;38224;50.950;4.100;2023-01-16T02:13:12;21.30;;;3.97;;
52268;SDS011;38224;50.950;4.100;2023-01-16T02:15:37;15.55;;;3.33;;
52268;SDS011;38224;50.950;4.100;2023-01-16T02:18:23;14.60;;;3.25;;
52268;SDS011;38224;50.950;4.100;2023-01-16T02:23:57;13.02;;;2.63;;
52268;SDS011;38224;50.950;4.100;2023-01-16T02:26:37;12.02;;;2.83;;
52268;SDS011;38224;50.950;4.100;2023-01-16T02:37:11;13.07;;;2.58;;
52268;SDS011;38224;50.950;4.100;2023-01-16T02:44:40;14.18;;;2.92;;
52268;SDS011;38224;50.950;4.100;2023-01-16T02:47:16;21.33;;;2.95;;
52268;SDS011;38224;50.950;4.100;2023-01-16T02:49:48;14.75;;;2.53;;
52268;SDS011;38224;50.950;4.100;2023-01-16T02:52:19;16.27;;;2.63;;
52268;SDS011;38224;50.950;4.100;2023-01-16T02:57:17;13.38;;;2.55;;
52268;SDS011;38224;50.950;4.100;2023-01-16T02:59:43;16.67;;;2.75;;
52268;SDS011;38224;50.950;4.100;2023-01-16T03:02:09;12.77;;;2.38;;
52268;SDS011;38224;50.950;4.100;2023-01-16T03:04:48;7.32;;;2.05;;
52268;SDS011;38224;50.950;4.100;2023-01-16T03:09:43;9.40;;;1.93;;
52268;SDS011;38224;50.950;4.100;2023-01-16T03:17:28;11.77;;;2.05;;
52268;SDS011;38224;50.950;4.100;2023-01-16T03:20:13;10.48;;;2.20;;
52268;SDS011;38224;50.950;4.100;2023-01-16T03:23:23;8.57;;;1.95;;
52268;SDS011;38224;50.950;4.100;2023-01-16T03:29:08;17.52;;;3.10;;
52268;SDS011;38224;50.950;4.100;2023-01-16T03:31:11;22.48;;;3.65;;
52268;SDS011;38224;50.950;4.100;2023-01-16T03:33:54;14.18;;;3.13;;
52268;SDS011;38224;50.950;4.100;2023-01-16T03:38:53;9.17;;;1.83;;
52268;SDS011;38224;50.950;4.100;2023-01-16T03:41:20;12.75;;;2.10;;
52268;SDS011;38224;50.950;4.100;2023-01-16T03:43:48;10.27;;;1.95;;
52268;SDS011;38224;50.950;4.100;2023-01-16T03:46:15;9.05;;;2.17;;
52268;SDS011;38224;50.950;4.100;2023-01-16T03:48:49;5.68;;;2.20;;
52268;SDS011;38224;50.950;4.100;2023-01-16T03:51:22;11.95;;;2.80;;
52268;SDS011;38224;50.950;4.100;2023-01-16T03:54:11;13.65;;;2.17;;
52268;SDS011;38224;50.950;4.100;2023-01-16T03:56:36;13.70;;;2.65;;
52268;SDS011;38224;50.950;4.100;2023-01-16T03:59:02;10.55;;;2.40;;
52268;SDS011;38224;50.950;4.100;2023-01-16T04:04:03;11.77;;;1.90;;
52268;SDS011;38224;50.950;4.100;2023-01-16T04:06:39;6.35;;;1.75;;
52268;SDS011;38224;50.950;4.100;2023-01-16T04:09:10;17.10;;;2.38;;
52268;SDS011;38224;50.950;4.100;2023-01-16T04:11:37;15.18;;;2.30;;
52268;SDS011;38224;50.950;4.100;2023-01-16T04:14:03;12.13;;;2.38;;
52268;SDS011;38224;50.950;4.100;2023-01-16T04:16:30;11.15;;;2.10;;
52268;SDS011;38224;50.950;4.100;2023-01-16T04:18:55;11.02;;;1.85;;
52268;SDS011;38224;50.950;4.100;2023-01-16T04:21:24;11.45;;;2.10;;
52268;SDS011;38224;50.950;4.100;2023-01-16T04:23:51;10.65;;;1.98;;
52268;SDS011;38224;50.950;4.100;2023-01-16T04:26:17;15.85;;;2.05;;
52268;SDS011;38224;50.950;4.100;2023-01-16T04:28:42;12.30;;;1.97;;
52268;SDS011;38224;50.950;4.100;2023-01-16T04:31:07;10.57;;;2.70;;
52268;SDS011;38224;50.950;4.100;2023-01-16T04:33:32;13.05;;;1.80;;
52268;SDS011;38224;50.950;4.100;2023-01-16T04:35:58;21.87;;;3.07;;
52268;SDS011;38224;50.950;4.100;2023-01-16T04:38:23;15.45;;;1.98;;
52268;SDS011;38224;50.950;4.100;2023-01-16T04:40:48;18.40;;;2.90;;
52268;SDS011;38224;50.950;4.100;2023-01-16T04:43:17;14.77;;;2.75;;
52268;SDS011;38224;50.950;4.100;2023-01-16T04:45:42;10.40;;;1.97;;
52268;SDS011;38224;50.950;4.100;2023-01-16T04:48:07;12.43;;;1.60;;
52268;SDS011;38224;50.950;4.100;2023-01-16T04:50:33;15.75;;;2.53;;
52268;SDS011;38224;50.950;4.100;2023-01-16T04:52:58;11.80;;;1.80;;
52268;SDS011;38224;50.950;4.100;2023-01-16T04:55:23;10.17;;;1.87;;
52268;SDS011;38224;50.950;4.100;2023-01-16T04:57:49;12.38;;;2.38;;
52268;SDS011;38224;50.950;4.100;2023-01-16T05:00:14;14.53;;;2.33;;
52268;SDS011;38224;50.950;4.100;2023-01-16T05:02:40;14.48;;;2.40;;
52268;SDS011;38224;50.950;4.100;2023-01-16T05:05:05;13.20;;;1.98;;
52268;SDS011;38224;50.950;4.100;2023-01-16T05:07:31;7.32;;;1.77;;
52268;SDS011;38224;50.950;4.100;2023-01-16T05:09:56;9.15;;;2.25;;
52268;SDS011;38224;50.950;4.100;2023-01-16T05:12:21;8.95;;;2.38;;
52268;SDS011;38224;50.950;4.100;2023-01-16T05:14:46;12.60;;;2.78;;
52268;SDS011;38224;50.950;4.100;2023-01-16T05:17:12;7.67;;;2.07;;
52268;SDS011;38224;50.950;4.100;2023-01-16T05:19:37;5.38;;;1.65;;
52268;SDS011;38224;50.950;4.100;2023-01-16T05:22:02;9.37;;;2.10;;
52268;SDS011;38224;50.950;4.100;2023-01-16T05:24:27;6.03;;;1.60;;
52268;SDS011;38224;50.950;4.100;2023-01-16T05:26:53;20.65;;;2.13;;
52268;SDS011;38224;50.950;4.100;2023-01-16T05:29:18;9.18;;;2.42;;
52268;SDS011;38224;50.950;4.100;2023-01-16T05:31:43;10.23;;;1.30;;
52268;SDS011;38224;50.950;4.100;2023-01-16T05:34:08;4.22;;;1.42;;
52268;SDS011;38224;50.950;4.100;2023-01-16T05:36:34;4.00;;;1.63;;
52268;SDS011;38224;50.950;4.100;2023-01-16T05:38:59;3.63;;;1.30;;
52268;SDS011;38224;50.950;4.100;2023-01-16T05:41:24;8.20;;;1.40;;
52268;SDS011;38224;50.950;4.100;2023-01-16T05:43:49;5.22;;;1.40;;
52268;SDS011;38224;50.950;4.100;2023-01-16T05:46:15;6.85;;;1.30;;
52268;SDS011;38224;50.950;4.100;2023-01-16T05:48:40;2.80;;;1.25;;
52268;SDS011;38224;50.950;4.100;2023-01-16T05:51:05;7.15;;;1.40;;
52268;SDS011;38224;50.950;4.100;2023-01-16T05:53:31;4.33;;;1.33;;
52268;SDS011;38224;50.950;4.100;2023-01-16T05:55:56;12.88;;;1.30;;
52268;SDS011;38224;50.950;4.100;2023-01-16T05:58:22;7.53;;;1.40;;
52268;SDS011;38224;50.950;4.100;2023-01-16T06:00:47;5.05;;;1.40;;
52268;SDS011;38224;50.950;4.100;2023-01-16T06:03:12;5.50;;;1.30;;
52268;SDS011;38224;50.950;4.100;2023-01-16T06:05:40;2.38;;;0.80;;
52268;SDS011;38224;50.950;4.100;2023-01-16T06:08:05;3.90;;;1.20;;
52268;SDS011;38224;50.950;4.100;2023-01-16T06:10:31;2.67;;;0.90;;
52268;SDS011;38224;50.950;4.100;2023-01-16T06:12:56;2.45;;;0.82;;
52268;SDS011;38224;50.950;4.100;2023-01-16T06:15:21;4.03;;;1.30;;
52268;SDS011;38224;50.950;4.100;2023-01-16T06:17:46;6.82;;;1.38;;
52268;SDS011;38224;50.950;4.100;2023-01-16T06:20:12;3.47;;;0.85;;
52268;SDS011;38224;50.950;4.100;2023-01-16T06:22:37;3.65;;;1.13;;
52268;SDS011;38224;50.950;4.100;2023-01-16T06:25:03;5.93;;;1.27;;
52268;SDS011;38224;50.950;4.100;2023-01-16T06:27:28;2.80;;;1.20;;
52268;SDS011;38224;50.950;4.100;2023-01-16T06:29:54;6.53;;;1.40;;
52268;SDS011;38224;50.950;4.100;2023-01-16T06:32:19;3.60;;;1.25;;
52268;SDS011;38224;50.950;4.100;2023-01-16T06:34:44;2.53;;;1.10;;
52268;SDS011;38224;50.950;4.100;2023-01-16T06:37:10;5.22;;;1.50;;
52268;SDS011;38224;50.950;4.100;2023-01-16T06:39:35;3.85;;;1.42;;
52268;SDS011;38224;50.950;4.100;2023-01-16T06:42:00;3.97;;;0.90;;
52268;SDS011;38224;50.950;4.100;2023-01-16T06:44:28;2.45;;;1.00;;
52268;SDS011;38224;50.950;4.100;2023-01-16T06:46:54;1.73;;;1.00;;
52268;SDS011;38224;50.950;4.100;2023-01-16T06:49:19;3.28;;;0.90;;
52268;SDS011;38224;50.950;4.100;2023-01-16T06:51:44;4.15;;;1.23;;
52268;SDS011;38224;50.950;4.100;2023-01-16T06:54:10;2.25;;;1.10;;
52268;SDS011;38224;50.950;4.100;2023-01-16T06:56:35;2.35;;;0.95;;
52268;SDS011;38224;50.950;4.100;2023-01-16T06:59:00;2.13;;;1.27;;
52268;SDS011;38224;50.950;4.100;2023-01-16T07:01:26;2.60;;;0.90;;
52268;SDS011;38224;50.950;4.100;2023-01-16T07:03:51;1.67;;;0.90;;
52268;SDS011;38224;50.950;4.100;2023-01-16T07:06:16;1.92;;;0.98;;
52268;SDS011;38224;50.950;4.100;2023-01-16T07:08:42;2.88;;;1.10;;
52268;SDS011;38224;50.950;4.100;2023-01-16T07:11:08;4.35;;;0.93;;
52268;SDS011;38224;50.950;4.100;2023-01-16T07:13:33;0.80;;;0.80;;
52268;SDS011;38224;50.950;4.100;2023-01-16T07:15:58;1.40;;;1.05;;
52268;SDS011;38224;50.950;4.100;2023-01-16T07:18:42;2.22;;;1.00;;
52268;SDS011;38224;50.950;4.100;2023-01-16T07:21:27;1.73;;;1.05;;
52268;SDS011;38224;50.950;4.100;2023-01-16T07:24:12;1.02;;;0.90;;
52268;SDS011;38224;50.950;4.100;2023-01-16T07:26:40;1.50;;;0.90;;
52268;SDS011;38224;50.950;4.100;2023-01-16T07:29:06;1.05;;;0.95;;
52268;SDS011;38224;50.950;4.100;2023-01-16T07:31:31;1.88;;;1.00;;
52268;SDS011;38224;50.950;4.100;2023-01-16T07:33:58;1.80;;;0.85;;
52268;SDS011;38224;50.950;4.100;2023-01-16T07:36:23;3.03;;;1.08;;
52268;SDS011;38224;50.950;4.100;2023-01-16T07:38:48;3.40;;;0.90;;
52268;SDS011;38224;50.950;4.100;2023-01-16T07:41:14;1.23;;;0.80;;
52268;SDS011;38224;50.950;4.100;2023-01-16T07:43:39;1.02;;;0.82;;
52268;SDS011;38224;50.950;4.100;2023-01-16T07:46:04;2.10;;;1.10;;
52268;SDS011;38224;50.950;4.100;2023-01-16T07:48:30;0.80;;;0.73;;
52268;SDS011;38224;50.950;4.100;2023-01-16T07:50:56;1.17;;;1.00;;
52268;SDS011;38224;50.950;4.100;2023-01-16T07:53:22;1.42;;;1.10;;
52268;SDS011;38224;50.950;4.100;2023-01-16T07:55:49;2.80;;;1.10;;
52268;SDS011;38224;50.950;4.100;2023-01-16T07:58:15;1.45;;;1.00;;
52268;SDS011;38224;50.950;4.100;2023-01-16T08:00:40;2.67;;;1.08;;
52268;SDS011;38224;50.950;4.100;2023-01-16T08:03:05;1.60;;;0.80;;
52268;SDS011;38224;50.950;4.100;2023-01-16T08:05:30;1.00;;;0.87;;
52268;SDS011;38224;50.950;4.100;2023-01-16T08:07:56;1.00;;;0.60;;
52268;SDS011;38224;50.950;4.100;2023-01-16T08:10:21;3.40;;;1.15;;
52268;SDS011;38224;50.950;4.100;2023-01-16T08:12:46;1.08;;;0.98;;
52268;SDS011;38224;50.950;4.100;2023-01-16T08:15:11;2.50;;;1.13;;
52268;SDS011;38224;50.950;4.100;2023-01-16T08:17:40;1.58;;;1.25;;
52268;SDS011;38224;50.950;4.100;2023-01-16T08:20:05;1.00;;;0.90;;
52268;SDS011;38224;50.950;4.100;2023-01-16T08:22:31;1.52;;;1.20;;
52268;SDS011;38224;50.950;4.100;2023-01-16T08:24:56;4.40;;;1.50;;
52268;SDS011;38224;50.950;4.100;2023-01-16T08:27:21;2.65;;;1.05;;
52268;SDS011;38224;50.950;4.100;2023-01-16T08:29:47;1.90;;;1.23;;
52268;SDS011;38224;50.950;4.100;2023-01-16T08:32:12;2.53;;;1.13;;
52268;SDS011;38224;50.950;4.100;2023-01-16T08:34:37;3.67;;;1.15;;
52268;SDS011;38224;50.950;4.100;2023-01-16T08:37:02;4.47;;;1.50;;
52268;SDS011;38224;50.950;4.100;2023-01-16T08:39:29;0.88;;;0.82;;
52268;SDS011;38224;50.950;4.100;2023-01-16T08:41:54;1.83;;;1.40;;
52268;SDS011;38224;50.950;4.100;2023-01-16T08:44:38;3.45;;;1.05;;
52268;SDS011;38224;50.950;4.100;2023-01-16T08:47:22;5.80;;;1.27;;
52268;SDS011;38224;50.950;4.100;2023-01-16T08:50:14;1.77;;;1.05;;
52268;SDS011;38224;50.950;4.100;2023-01-16T08:52:58;2.60;;;0.80;;
52268;SDS011;38224;50.950;4.100;2023-01-16T08:55:24;2.40;;;1.10;;
52268;SDS011;38224;50.950;4.100;2023-01-16T08:57:49;2.53;;;0.82;;
52268;SDS011;38224;50.950;4.100;2023-01-16T09:00:14;4.38;;;1.23;;
52268;SDS011;38224;50.950;4.100;2023-01-16T09:02:40;1.83;;;1.10;;
52268;SDS011;38224;50.950;4.100;2023-01-16T09:05:05;1.73;;;1.33;;
52268;SDS011;38224;50.950;4.100;2023-01-16T09:07:31;3.45;;;1.23;;
52268;SDS011;38224;50.950;4.100;2023-01-16T09:09:56;3.85;;;2.17;;
52268;SDS011;38224;50.950;4.100;2023-01-16T09:12:21;4.83;;;1.37;;
52268;SDS011;38224;50.950;4.100;2023-01-16T09:15:05;2.22;;;0.95;;
52268;SDS011;38224;50.950;4.100;2023-01-16T09:17:31;1.98;;;0.90;;
52268;SDS011;38224;50.950;4.100;2023-01-16T09:19:56;3.95;;;1.42;;
52268;SDS011;38224;50.950;4.100;2023-01-16T09:22:21;2.88;;;1.10;;
52268;SDS011;38224;50.950;4.100;2023-01-16T09:24:47;3.55;;;1.58;;
52268;SDS011;38224;50.950;4.100;2023-01-16T09:27:12;2.13;;;1.00;;
52268;SDS011;38224;50.950;4.100;2023-01-16T09:29:43;2.47;;;0.95;;
52268;SDS011;38224;50.950;4.100;2023-01-16T09:32:08;1.90;;;1.30;;
52268;SDS011;38224;50.950;4.100;2023-01-16T09:34:34;2.05;;;1.13;;
52268;SDS011;38224;50.950;4.100;2023-01-16T09:37:00;1.67;;;1.13;;
52268;SDS011;38224;50.950;4.100;2023-01-16T09:39:26;2.20;;;1.30;;
52268;SDS011;38224;50.950;4.100;2023-01-16T09:41:55;6.00;;;1.50;;
52268;SDS011;38224;50.950;4.100;2023-01-16T09:44:44;2.10;;;1.40;;
52268;SDS011;38224;50.950;4.100;2023-01-16T09:47:10;2.95;;;1.20;;
52268;SDS011;38224;50.950;4.100;2023-01-16T09:49:46;3.70;;;1.00;;
52268;SDS011;38224;50.950;4.100;2023-01-16T09:52:15;4.25;;;1.30;;
52268;SDS011;38224;50.950;4.100;2023-01-16T09:55:03;3.40;;;1.40;;
52268;SDS011;38224;50.950;4.100;2023-01-16T09:57:48;3.55;;;1.73;;
52268;SDS011;38224;50.950;4.100;2023-01-16T10:00:32;4.13;;;1.40;;
52268;SDS011;38224;50.950;4.100;2023-01-16T10:02:59;2.33;;;1.60;;
52268;SDS011;38224;50.950;4.100;2023-01-16T10:05:26;2.80;;;1.50;;
52268;SDS011;38224;50.950;4.100;2023-01-16T10:08:01;3.63;;;1.90;;
52268;SDS011;38224;50.950;4.100;2023-01-16T10:13:17;5.13;;;1.55;;
52268;SDS011;38224;50.950;4.100;2023-01-16T10:31:10;3.83;;;1.97;;
52268;SDS011;38224;50.950;4.100;2023-01-16T10:36:20;3.92;;;2.53;;
52268;SDS011;38224;50.950;4.100;2023-01-16T10:38:50;4.50;;;1.80;;
52268;SDS011;38224;50.950;4.100;2023-01-16T10:41:20;5.65;;;2.90;;
52268;SDS011;38224;50.950;4.100;2023-01-16T10:44:39;5.70;;;3.25;;
52268;SDS011;38224;50.950;4.100;2023-01-16T10:47:16;6.10;;;3.53;;
52268;SDS011;38224;50.950;4.100;2023-01-16T10:50:00;4.13;;;2.65;;
52268;SDS011;38224;50.950;4.100;2023-01-16T10:52:26;3.47;;;1.88;;
52268;SDS011;38224;50.950;4.100;2023-01-16T10:54:52;2.53;;;2.20;;
52268;SDS011;38224;50.950;4.100;2023-01-16T10:57:19;3.63;;;2.45;;
52268;SDS011;38224;50.950;4.100;2023-01-16T10:59:44;4.80;;;1.95;;
52268;SDS011;38224;50.950;4.100;2023-01-16T11:02:27;1.88;;;1.35;;
52268;SDS011;38224;50.950;4.100;2023-01-16T11:04:54;3.78;;;2.08;;
52268;SDS011;38224;50.950;4.100;2023-01-16T11:07:20;3.03;;;2.10;;
52268;SDS011;38224;50.950;4.100;2023-01-16T11:09:46;10.02;;;2.50;;
52268;SDS011;38224;50.950;4.100;2023-01-16T11:12:16;2.58;;;1.83;;
52268;SDS011;38224;50.950;4.100;2023-01-16T11:15:02;2.80;;;1.70;;
52268;SDS011;38224;50.950;4.100;2023-01-16T11:18:02;3.67;;;2.28;;
52268;SDS011;38224;50.950;4.100;2023-01-16T11:20:46;2.88;;;1.77;;
52268;SDS011;38224;50.950;4.100;2023-01-16T11:23:16;5.07;;;2.38;;
52268;SDS011;38224;50.950;4.100;2023-01-16T11:25:42;7.25;;;3.17;;
52268;SDS011;38224;50.950;4.100;2023-01-16T11:28:10;4.20;;;2.55;;
52268;SDS011;38224;50.950;4.100;2023-01-16T11:30:38;7.68;;;2.58;;
52268;SDS011;38224;50.950;4.100;2023-01-16T11:33:05;4.97;;;2.78;;
52268;SDS011;38224;50.950;4.100;2023-01-16T11:35:36;4.03;;;2.50;;
52268;SDS011;38224;50.950;4.100;2023-01-16T11:38:02;6.15;;;3.00;;
52268;SDS011;38224;50.950;4.100;2023-01-16T11:40:28;3.58;;;2.25;;
52268;SDS011;38224;50.950;4.100;2023-01-16T11:42:55;5.05;;;2.80;;
52268;SDS011;38224;50.950;4.100;2023-01-16T11:45:42;12.75;;;4.80;;
52268;SDS011;38224;50.950;4.100;2023-01-16T11:48:26;9.45;;;4.10;;
52268;SDS011;38224;50.950;4.100;2023-01-16T11:50:53;8.63;;;4.70;;
52268;SDS011;38224;50.950;4.100;2023-01-16T11:53:19;7.18;;;3.40;;
52268;SDS011;38224;50.950;4.100;2023-01-16T11:58:26;9.27;;;4.45;;
52268;SDS011;38224;50.950;4.100;2023-01-16T12:01:04;12.55;;;4.93;;
52268;SDS011;38224;50.950;4.100;2023-01-16T12:03:48;5.82;;;3.00;;
52268;SDS011;38224;50.950;4.100;2023-01-16T12:06:23;8.15;;;2.58;;
52268;SDS011;38224;50.950;4.100;2023-01-16T12:09:08;6.60;;;2.40;;
52268;SDS011;38224;50.950;4.100;2023-01-16T12:14:32;11.95;;;4.45;;
52268;SDS011;38224;50.950;4.100;2023-01-16T12:24:49;2.80;;;1.58;;
52268;SDS011;38224;50.950;4.100;2023-01-16T12:33:12;3.07;;;1.20;;
52268;SDS011;38224;50.950;4.100;2023-01-16T12:35:21;2.28;;;1.40;;
52268;SDS011;38224;50.950;4.100;2023-01-16T12:56:20;3.60;;;2.10;;
52268;SDS011;38224;50.950;4.100;2023-01-16T13:01:22;1.75;;;1.55;;
52268;SDS011;38224;50.950;4.100;2023-01-16T13:04:11;5.05;;;2.17;;
52268;SDS011;38224;50.950;4.100;2023-01-16T13:06:40;9.65;;;5.20;;
52268;SDS011;38224;50.950;4.100;2023-01-16T13:09:11;10.25;;;4.85;;
52268;SDS011;38224;50.950;4.100;2023-01-16T13:11:46;9.93;;;4.57;;
52268;SDS011;38224;50.950;4.100;2023-01-16T13:14:30;9.20;;;4.60;;
52268;SDS011;38224;50.950;4.100;2023-01-16T13:17:00;9.63;;;4.95;;
52268;SDS011;38224;50.950;4.100;2023-01-16T13:19:27;9.52;;;5.13;;
52268;SDS011;38224;50.950;4.100;2023-01-16T13:21:57;9.15;;;4.28;;
52268;SDS011;38224;50.950;4.100;2023-01-16T13:24:26;4.60;;;2.38;;
52268;SDS011;38224;50.950;4.100;2023-01-16T13:26:55;6.43;;;3.30;;
52268;SDS011;38224;50.950;4.100;2023-01-16T13:29:25;9.70;;;3.40;;
52268;SDS011;38224;50.950;4.100;2023-01-16T13:31:56;6.30;;;3.30;;
52268;SDS011;38224;50.950;4.100;2023-01-16T13:34:25;5.05;;;2.75;;
52268;SDS011;38224;50.950;4.100;2023-01-16T13:42:06;4.47;;;2.38;;
52268;SDS011;38224;50.950;4.100;2023-01-16T13:44:37;5.03;;;2.17;;
52268;SDS011;38224;50.950;4.100;2023-01-16T13:47:27;3.97;;;2.95;;
52268;SDS011;38224;50.950;4.100;2023-01-16T13:49:59;8.98;;;3.40;;
52268;SDS011;38224;50.950;4.100;2023-01-16T13:52:26;5.35;;;3.60;;
52268;SDS011;38224;50.950;4.100;2023-01-16T13:54:53;10.55;;;6.07;;
52268;SDS011;38224;50.950;4.100;2023-01-16T13:57:20;12.60;;;6.40;;
52268;SDS011;38224;50.950;4.100;2023-01-16T14:00:09;7.43;;;3.10;;
52268;SDS011;38224;50.950;4.100;2023-01-16T14:13:23;5.63;;;4.43;;
52268;SDS011;38224;50.950;4.100;2023-01-16T14:16:25;8.90;;;4.68;;
52268;SDS011;38224;50.950;4.100;2023-01-16T14:19:02;6.90;;;4.95;;
52268;SDS011;38224;50.950;4.100;2023-01-16T14:24:03;5.75;;;2.38;;
52268;SDS011;38224;50.950;4.100;2023-01-16T14:29:04;5.10;;;3.60;;
52268;SDS011;38224;50.950;4.100;2023-01-16T14:34:16;8.10;;;3.83;;
52268;SDS011;38224;50.950;4.100;2023-01-16T14:36:42;6.22;;;2.70;;
52268;SDS011;38224;50.950;4.100;2023-01-16T14:39:29;6.10;;;3.50;;
52268;SDS011;38224;50.950;4.100;2023-01-16T14:41:56;4.28;;;2.70;;
52268;SDS011;38224;50.950;4.100;2023-01-16T14:47:45;5.68;;;2.95;;
52268;SDS011;38224;50.950;4.100;2023-01-16T14:50:41;5.97;;;3.30;;
52268;SDS011;38224;50.950;4.100;2023-01-16T14:53:25;5.10;;;3.08;;
52268;SDS011;38224;50.950;4.100;2023-01-16T14:56:21;7.32;;;3.60;;
52268;SDS011;38224;50.950;4.100;2023-01-16T14:59:24;10.75;;;7.47;;
52268;SDS011;38224;50.950;4.100;2023-01-16T15:04:26;4.40;;;3.92;;
52268;SDS011;38224;50.950;4.100;2023-01-16T15:06:58;6.07;;;5.00;;
52268;SDS011;38224;50.950;4.100;2023-01-16T15:09:26;4.40;;;3.30;;
52268;SDS011;38224;50.950;4.100;2023-01-16T15:11:59;5.18;;;2.70;;
52268;SDS011;38224;50.950;4.100;2023-01-16T15:14:25;3.55;;;2.60;;
52268;SDS011;38224;50.950;4.100;2023-01-16T15:24:54;4.60;;;3.58;;
52268;SDS011;38224;50.950;4.100;2023-01-16T15:27:24;7.82;;;3.75;;
52268;SDS011;38224;50.950;4.100;2023-01-16T15:29:53;5.13;;;3.65;;
52268;SDS011;38224;50.950;4.100;2023-01-16T15:32:21;5.65;;;3.08;;
52268;SDS011;38224;50.950;4.100;2023-01-16T15:35:02;3.13;;;2.83;;
52268;SDS011;38224;50.950;4.100;2023-01-16T15:37:29;4.03;;;2.72;;
52268;SDS011;38224;50.950;4.100;2023-01-16T15:39:55;2.67;;;2.38;;
52268;SDS011;38224;50.950;4.100;2023-01-16T15:47:58;5.43;;;2.10;;
52268;SDS011;38224;50.950;4.100;2023-01-16T15:50:40;5.75;;;1.60;;
52268;SDS011;38224;50.950;4.100;2023-01-16T15:53:07;1.83;;;1.52;;
52268;SDS011;38224;50.950;4.100;2023-01-16T15:55:37;3.80;;;1.85;;
52268;SDS011;38224;50.950;4.100;2023-01-16T15:58:03;3.72;;;1.40;;
52268;SDS011;38224;50.950;4.100;2023-01-16T16:00:36;4.57;;;2.00;;
52268;SDS011;38224;50.950;4.100;2023-01-16T16:05:27;8.40;;;3.73;;
52268;SDS011;38224;50.950;4.100;2023-01-16T16:07:54;10.27;;;2.00;;
52268;SDS011;38224;50.950;4.100;2023-01-16T16:10:19;3.08;;;1.90;;
52268;SDS011;38224;50.950;4.100;2023-01-16T16:13:05;5.35;;;2.40;;
52268;SDS011;38224;50.950;4.100;2023-01-16T16:15:31;10.77;;;2.17;;
52268;SDS011;38224;50.950;4.100;2023-01-16T16:18:15;7.47;;;2.13;;
52268;SDS011;38224;50.950;4.100;2023-01-16T16:20:41;7.82;;;2.33;;
52268;SDS011;38224;50.950;4.100;2023-01-16T16:28:24;11.82;;;2.60;;
52268;SDS011;38224;50.950;4.100;2023-01-16T16:33:21;10.23;;;2.50;;
52268;SDS011;38224;50.950;4.100;2023-01-16T16:35:51;8.05;;;2.28;;
52268;SDS011;38224;50.950;4.100;2023-01-16T16:38:18;7.35;;;2.13;;
52268;SDS011;38224;50.950;4.100;2023-01-16T16:40:43;9.13;;;1.70;;
52268;SDS011;38224;50.950;4.100;2023-01-16T16:43:13;9.73;;;1.73;;
52268;SDS011;38224;50.950;4.100;2023-01-16T16:45:38;7.13;;;1.77;;
52268;SDS011;38224;50.950;4.100;2023-01-16T16:50:38;5.82;;;2.00;;
52268;SDS011;38224;50.950;4.100;2023-01-16T16:55:30;7.72;;;2.00;;
52268;SDS011;38224;50.950;4.100;2023-01-16T16:57:57;6.20;;;2.13;;
52268;SDS011;38224;50.950;4.100;2023-01-16T17:00:23;8.50;;;2.28;;
52268;SDS011;38224;50.950;4.100;2023-01-16T17:02:48;7.97;;;1.70;;
52268;SDS011;38224;50.950;4.100;2023-01-16T17:05:15;8.20;;;1.70;;
52268;SDS011;38224;50.950;4.100;2023-01-16T17:07:43;7.07;;;1.80;;
52268;SDS011;38224;50.950;4.100;2023-01-16T17:10:12;9.85;;;2.10;;
52268;SDS011;38224;50.950;4.100;2023-01-16T17:12:38;10.07;;;2.70;;
52268;SDS011;38224;50.950;4.100;2023-01-16T17:15:04;9.57;;;2.53;;
52268;SDS011;38224;50.950;4.100;2023-01-16T17:17:29;11.57;;;2.85;;
52268;SDS011;38224;50.950;4.100;2023-01-16T17:19:55;9.57;;;2.10;;
52268;SDS011;38224;50.950;4.100;2023-01-16T17:22:20;6.13;;;2.72;;
52268;SDS011;38224;50.950;4.100;2023-01-16T17:24:45;7.90;;;2.00;;
52268;SDS011;38224;50.950;4.100;2023-01-16T17:27:12;5.03;;;1.50;;
52268;SDS011;38224;50.950;4.100;2023-01-16T17:29:38;5.43;;;1.83;;
52268;SDS011;38224;50.950;4.100;2023-01-16T17:32:42;6.13;;;1.40;;
52268;SDS011;38224;50.950;4.100;2023-01-16T17:35:00;4.22;;;1.40;;
52268;SDS011;38224;50.950;4.100;2023-01-16T17:37:26;2.30;;;1.05;;